Moffett Field, CA

09:01 PM PDT del 20 Settembre 2014 (GMT -0700)
Moffett Federal Air Field | Change Station
CLOSE
Current Station
Aeroporto
Location: Moffett NAS,
Altitudine: 39 ft
Stazioni meteo nelle vicinanze

Alt. 39 ft 37.41 °N, 122.05 °W | Updated 5 minutes ago

Sereno
Sereno
65 °F
Sembra 65 °F
N
7
Vento Variabile Vento da NNO

Oggi
Massima -- | Minima -- °F
--% Possibilità di precip.
Ieri
Massima -- | Minima -- °F
Precip. -- in
6:54 AM 7:08 PM
Luna calante, 9% visible
Pressione 29.95 in
Visibilità 10.0 miglia
Nuvole Sereno
Punto di rugiada 59 °F
Umidità 81%
Piovosità 0.00 in
Spessore del manto nevoso 0 in , 0 in , 1 in
Raggi UV 0 fuori da 12
Polline 4.00 fuori da 12
PM2.5 Buono
Flu Activity Non disponibile.
METAR KNUQ 210356Z 34006KT 10SM CLR 18/15 A2994 RMK AO2 SLP142 T01830150

More Conditions Fewer Conditions

Pressione 29.95 in
Visibilità 10.0 miglia
Nuvole Sereno
Punto di rugiada 59 °F
Umidità 81%
Piovosità 0.00 in
Spessore del manto nevoso 0 in , 0 in , 1 in
Raggi UV 0 fuori da 12
Polline 4.00 fuori da 12
PM2.5 Buono
Flu Activity Non disponibile.
METAR KNUQ 210356Z 34006KT 10SM CLR 18/15 A2994 RMK AO2 SLP142 T01830150

More Conditions Fewer Conditions

10-Day Weather Forecast

Almanac

Astronomia

Sep. 20, 2014 Alba Tramonto
Ora attuale 06:54 PDT 19:08 PDT
Crepuscolo civile 06:28 PDT 19:34 PDT
Crepuscolo nautico 05:57 PDT 20:04 PDT
Crepuscolo astronomico 05:26 PDT 20:35 PDT
Luna 03:41 PDT (9/20) 17:11 PDT (9/20)
Estensione della luce visibile 13h 05m
Lunghezza del giorno
12h 13m
Tomorrow will be 2m 23s shorter.
Luna calante, 9% of the Moon is Illuminated
Set 21
Luna calante
Set 24
Nuovo
Ott 1
Primo quarto
Ott 8
Luna piena
Ott 15
Ultimo quarto

Gli estremi di oggi

State Highs State Lows

Community

WunderPhotos

Upload Photos

1,755,084 foto caricate!

Nearby

Qualità dell'aria

  Qualità dell'aria Indice AQ Inquinante
Ieri Buono
PM2.5
Ieri Buono
OZONE
Attuale Buono
PM2.5
Sabato Moderato
PM2.5
Domenica Moderato
PM2.5
Lunedì Buono
PM2.5
Martedì Buono
PM2.5
Mercoledì Buono
OZONE
Giovedì Buono
OZONE

Profondità neve

Stazione Profondità Altitudine
Burnside Lake 0 in 8139 ft
Tahoe City Cross 0 in 6750 ft
Summit Meadow 1 in 9122 ft
Echo Peak 1 in 7800 ft
Spratt Creek 1 in 6200 ft

Attività sismica

Città  Distanza Mag. Data & Ora
Livermore, California 25 miglia 2.6 03:37 PDT
2014-09-19
The Geysers, California 99 miglia 2.5 23:29 PDT
2014-09-17
Minimo Magnitudo Mostrato è 2.5.

Temperature delle acque costiere

Località Temperatura
Nessun dato dalle stazioni

Stazioni meteo nelle vicinanze